Time,TemperatureF,DewpointF,PressureIn,WindDirection,WindDirectionDegrees,WindSpeedMPH,WindSpeedGustMPH,Humidity,HourlyPrecipIn,Conditions,Clouds,dailyrainin,SoftwareType,DateUTC
2013-03-24 00:03:00,34.0,-99.9,-100.00,NNE,33,8.0,11.0,-999,0.00,,,0.00,,2013-03-24 05:03:00,
2013-03-24 00:13:00,34.0,-99.9,-100.00,NNE,33,8.0,11.0,-999,0.00,,,0.00,,2013-03-24 05:13:00,
2013-03-24 00:23:00,34.0,-99.9,-100.00,NNE,33,8.0,11.0,-999,0.00,,,0.00,,2013-03-24 05:23:00,
2013-03-24 00:33:00,34.0,-99.9,-100.00,NNE,17,9.0,14.0,-999,0.00,,,0.00,,2013-03-24 05:33:00,
2013-03-24 00:43:00,34.0,-99.9,-100.00,NNE,17,9.0,14.0,-999,0.00,,,0.00,,2013-03-24 05:43:00,
2013-03-24 00:52:00,34.0,-99.9,-100.00,NNE,17,9.0,14.0,-999,0.00,,,0.00,,2013-03-24 05:52:00,
2013-03-24 01:02:00,33.0,-99.9,-100.00,North,11,11.0,14.0,-999,0.00,,,0.00,,2013-03-24 06:02:00,
2013-03-24 01:12:00,33.0,-99.9,-100.00,North,11,11.0,14.0,-999,0.00,,,0.00,,2013-03-24 06:12:00,
2013-03-24 01:22:00,33.0,-99.9,-100.00,North,11,11.0,14.0,-999,0.00,,,0.00,,2013-03-24 06:22:00,
2013-03-24 01:32:00,31.0,-99.9,-100.00,NNE,21,12.0,15.0,-999,0.00,,,0.00,,2013-03-24 06:32:00,
2013-03-24 01:43:00,31.0,-99.9,-100.00,NNE,21,12.0,15.0,-999,0.00,,,0.00,,2013-03-24 06:43:00,
2013-03-24 01:52:00,31.0,-99.9,-100.00,NNE,21,12.0,15.0,-999,0.00,,,0.00,,2013-03-24 06:52:00,
2013-03-24 02:02:00,31.0,-99.9,-100.00,NNE,25,8.0,13.0,-999,0.00,,,0.00,,2013-03-24 07:02:00,
2013-03-24 02:12:00,31.0,-99.9,-100.00,NNE,25,8.0,13.0,-999,0.00,,,0.00,,2013-03-24 07:12:00,
2013-03-24 02:22:00,31.0,-99.9,-100.00,NNE,25,8.0,13.0,-999,0.00,,,0.00,,2013-03-24 07:22:00,
2013-03-24 02:32:00,31.0,-99.9,-100.00,NNE,27,9.0,12.0,-999,0.00,,,0.00,,2013-03-24 07:32:00,
2013-03-24 02:42:00,31.0,-99.9,-100.00,NNE,27,9.0,12.0,-999,0.00,,,0.00,,2013-03-24 07:42:00,
2013-03-24 02:53:00,31.0,-99.9,-100.00,NNE,27,9.0,12.0,-999,0.00,,,0.00,,2013-03-24 07:53:00,
2013-03-24 03:03:00,30.0,-99.9,-100.00,NE,42,9.0,13.0,-999,0.00,,,0.00,,2013-03-24 08:03:00,
2013-03-24 03:12:00,30.0,-99.9,-100.00,NE,42,9.0,13.0,-999,0.00,,,0.00,,2013-03-24 08:12:00,
2013-03-24 03:22:00,30.0,-99.9,-100.00,NE,42,9.0,13.0,-999,0.00,,,0.00,,2013-03-24 08:22:00,
2013-03-24 03:32:00,31.0,-99.9,-100.00,ENE,73,7.0,9.0,-999,0.00,,,0.00,,2013-03-24 08:32:00,
2013-03-24 03:42:00,31.0,-99.9,-100.00,ENE,73,7.0,9.0,-999,0.00,,,0.00,,2013-03-24 08:42:00,
2013-03-24 03:53:00,31.0,-99.9,-100.00,ENE,73,7.0,9.0,-999,0.00,,,0.00,,2013-03-24 08:53:00,
2013-03-24 04:02:00,30.0,-99.9,-100.00,ENE,69,7.0,9.0,-999,0.00,,,0.00,,2013-03-24 09:02:00,
2013-03-24 04:12:00,30.0,-99.9,-100.00,ENE,69,7.0,9.0,-999,0.00,,,0.00,,2013-03-24 09:12:00,
2013-03-24 04:22:00,30.0,-99.9,-100.00,ENE,69,7.0,9.0,-999,0.00,,,0.00,,2013-03-24 09:22:00,
2013-03-24 04:33:00,29.0,-99.9,-100.00,ENE,63,10.0,13.0,-999,0.00,,,0.00,,2013-03-24 09:33:00,
2013-03-24 04:43:00,29.0,-99.9,-100.00,ENE,63,10.0,13.0,-999,0.00,,,0.00,,2013-03-24 09:43:00,
2013-03-24 04:53:00,29.0,-99.9,-100.00,ENE,63,10.0,13.0,-999,0.00,,,0.00,,2013-03-24 09:53:00,
2013-03-24 05:03:00,29.0,-99.9,-100.00,NE,54,10.0,15.0,-999,0.00,,,0.00,,2013-03-24 10:03:00,
2013-03-24 05:13:00,29.0,-99.9,-100.00,NE,54,10.0,15.0,-999,0.00,,,0.00,,2013-03-24 10:13:00,
2013-03-24 05:23:00,29.0,-99.9,-100.00,NE,54,10.0,15.0,-999,0.00,,,0.00,,2013-03-24 10:23:00,
2013-03-24 05:33:00,29.0,-99.9,-100.00,NNE,21,10.0,15.0,-999,0.00,,,0.00,,2013-03-24 10:33:00,
2013-03-24 05:43:00,29.0,-99.9,-100.00,NNE,21,10.0,15.0,-999,0.00,,,0.00,,2013-03-24 10:43:00,
2013-03-24 05:53:00,29.0,-99.9,-100.00,NNE,21,10.0,15.0,-999,0.00,,,0.00,,2013-03-24 10:53:00,
2013-03-24 06:03:00,29.0,-99.9,-100.00,North,351,8.0,9.0,-999,0.00,,,0.00,,2013-03-24 11:03:00,
2013-03-24 06:12:00,29.0,-99.9,-100.00,North,351,8.0,9.0,-999,0.00,,,0.00,,2013-03-24 11:12:00,
2013-03-24 06:22:00,29.0,-99.9,-100.00,North,351,8.0,9.0,-999,0.00,,,0.00,,2013-03-24 11:22:00,
2013-03-24 06:33:00,29.0,-99.9,-100.00,North,3,8.0,12.0,-999,0.00,,,0.00,,2013-03-24 11:33:00,
2013-03-24 06:43:00,29.0,-99.9,-100.00,North,3,8.0,12.0,-999,0.00,,,0.00,,2013-03-24 11:43:00,
2013-03-24 06:52:00,29.0,-99.9,-100.00,North,3,8.0,12.0,-999,0.00,,,0.00,,2013-03-24 11:52:00,
2013-03-24 07:03:00,29.0,-99.9,-100.00,NNE,16,7.0,10.0,-999,0.00,,,0.00,,2013-03-24 12:03:00,
2013-03-24 07:13:00,29.0,-99.9,-100.00,NNE,16,7.0,10.0,-999,0.00,,,0.00,,2013-03-24 12:13:00,
2013-03-24 07:23:00,29.0,-99.9,-100.00,NNE,16,7.0,10.0,-999,0.00,,,0.00,,2013-03-24 12:23:00,
2013-03-24 07:33:00,29.0,-99.9,-100.00,NNE,19,10.0,14.0,-999,0.00,,,0.00,,2013-03-24 12:33:00,
2013-03-24 07:42:00,29.0,-99.9,-100.00,NNE,19,10.0,14.0,-999,0.00,,,0.00,,2013-03-24 12:42:00,
2013-03-24 07:53:00,29.0,-99.9,-100.00,NNE,19,10.0,14.0,-999,0.00,,,0.00,,2013-03-24 12:53:00,
2013-03-24 08:03:00,29.0,-99.9,-100.00,NNE,22,10.0,14.0,-999,0.00,,,0.00,,2013-03-24 13:03:00,
2013-03-24 08:13:00,29.0,-99.9,-100.00,NNE,22,10.0,14.0,-999,0.00,,,0.00,,2013-03-24 13:13:00,
2013-03-24 08:23:00,29.0,-99.9,-100.00,NNE,22,10.0,14.0,-999,0.00,,,0.00,,2013-03-24 13:23:00,
2013-03-24 08:33:00,29.0,-99.9,-100.00,North,11,13.0,18.0,-999,0.00,,,0.00,,2013-03-24 13:33:00,
2013-03-24 08:43:00,29.0,-99.9,-100.00,North,11,13.0,18.0,-999,0.00,,,0.00,,2013-03-24 13:43:00,
2013-03-24 08:53:00,29.0,-99.9,-100.00,North,11,13.0,18.0,-999,0.00,,,0.00,,2013-03-24 13:53:00,
2013-03-24 09:03:00,29.0,-99.9,-100.00,North,9,13.0,19.0,-999,0.00,,,0.00,,2013-03-24 14:03:00,
2013-03-24 09:13:00,29.0,-99.9,-100.00,North,9,13.0,19.0,-999,0.00,,,0.00,,2013-03-24 14:13:00,
2013-03-24 09:22:00,29.0,-99.9,-100.00,North,9,13.0,19.0,-999,0.00,,,0.00,,2013-03-24 14:22:00,
2013-03-24 09:33:00,29.0,-99.9,-100.00,North,6,15.0,23.0,-999,0.00,,,0.00,,2013-03-24 14:33:00,
2013-03-24 09:43:00,29.0,-99.9,-100.00,North,6,15.0,23.0,-999,0.00,,,0.00,,2013-03-24 14:43:00,
2013-03-24 09:53:00,29.0,-99.9,-100.00,North,6,15.0,23.0,-999,0.00,,,0.00,,2013-03-24 14:53:00,
2013-03-24 10:02:00,30.0,-99.9,-100.00,NNE,18,14.0,20.0,-999,0.00,,,0.00,,2013-03-24 15:02:00,
2013-03-24 10:13:00,30.0,-99.9,-100.00,NNE,18,14.0,20.0,-999,0.00,,,0.00,,2013-03-24 15:13:00,
2013-03-24 10:23:00,30.0,-99.9,-100.00,NNE,18,14.0,20.0,-999,0.00,,,0.00,,2013-03-24 15:23:00,
2013-03-24 10:33:00,31.0,-99.9,-100.00,NNE,15,13.0,21.0,-999,0.00,,,0.00,,2013-03-24 15:33:00,
2013-03-24 10:43:00,31.0,-99.9,-100.00,NNE,15,13.0,21.0,-999,0.00,,,0.00,,2013-03-24 15:43:00,
2013-03-24 10:53:00,31.0,-99.9,-100.00,NNE,15,13.0,21.0,-999,0.00,,,0.00,,2013-03-24 15:53:00,
2013-03-24 11:03:00,31.0,-99.9,-100.00,North,11,7.0,12.0,-999,0.01,,,0.01,,2013-03-24 16:03:00,
2013-03-24 11:13:00,31.0,-99.9,-100.00,North,11,7.0,12.0,-999,0.01,,,0.01,,2013-03-24 16:13:00,
2013-03-24 11:23:00,31.0,-99.9,-100.00,North,11,7.0,12.0,-999,0.01,,,0.01,,2013-03-24 16:23:00,
2013-03-24 11:33:00,32.0,-99.9,-100.00,North,6,10.0,12.0,-999,0.01,,,0.01,,2013-03-24 16:33:00,
2013-03-24 11:43:00,32.0,-99.9,-100.00,North,6,10.0,12.0,-999,0.01,,,0.01,,2013-03-24 16:43:00,
2013-03-24 11:53:00,32.0,-99.9,-100.00,North,6,10.0,12.0,-999,0.01,,,0.01,,2013-03-24 16:53:00,
2013-03-24 12:03:00,32.0,-99.9,-100.00,North,10,9.0,11.0,-999,0.01,,,0.02,,2013-03-24 17:03:00,
2013-03-24 12:12:00,32.0,-99.9,-100.00,North,10,9.0,11.0,-999,0.01,,,0.02,,2013-03-24 17:12:00,
2013-03-24 12:23:00,32.0,-99.9,-100.00,North,10,9.0,11.0,-999,0.01,,,0.02,,2013-03-24 17:23:00,
2013-03-24 12:33:00,32.0,-99.9,-100.00,North,10,6.0,11.0,-999,0.02,,,0.03,,2013-03-24 17:33:00,
2013-03-24 12:43:00,32.0,-99.9,-100.00,North,10,6.0,11.0,-999,0.02,,,0.03,,2013-03-24 17:43:00,
2013-03-24 12:53:00,32.0,-99.9,-100.00,North,10,6.0,11.0,-999,0.02,,,0.03,,2013-03-24 17:53:00,
2013-03-24 13:03:00,31.0,-99.9,-100.00,North,9,8.0,10.0,-999,0.02,,,0.04,,2013-03-24 18:03:00,
2013-03-24 13:13:00,31.0,-99.9,-100.00,North,9,8.0,10.0,-999,0.02,,,0.04,,2013-03-24 18:13:00,
2013-03-24 13:22:00,31.0,-99.9,-100.00,North,9,8.0,10.0,-999,0.02,,,0.04,,2013-03-24 18:22:00,
2013-03-24 13:30:00,32.0,-99.9,-100.00,North,357,14.0,19.0,-999,0.03,,,0.07,,2013-03-24 18:30:00,
2013-03-24 13:33:00,31.0,-99.9,-100.00,North,2,11.0,17.0,-999,0.03,,,0.06,,2013-03-24 18:33:00,
2013-03-24 13:43:00,31.0,-99.9,-100.00,North,2,11.0,17.0,-999,0.03,,,0.06,,2013-03-24 18:43:00,
2013-03-24 13:53:00,31.0,-99.9,-100.00,North,2,11.0,17.0,-999,0.03,,,0.06,,2013-03-24 18:53:00,
2013-03-24 14:03:00,32.0,-99.9,-100.00,North,357,14.0,19.0,-999,0.03,,,0.07,,2013-03-24 19:03:00,
2013-03-24 14:12:00,32.0,-99.9,-100.00,North,357,14.0,19.0,-999,0.03,,,0.07,,2013-03-24 19:12:00,
2013-03-24 14:23:00,32.0,-99.9,-100.00,North,357,14.0,19.0,-999,0.03,,,0.07,,2013-03-24 19:23:00,
2013-03-24 14:43:00,32.0,-99.9,-100.00,North,7,15.0,22.0,-999,0.01,,,0.07,,2013-03-24 19:43:00,
2013-03-24 14:53:00,32.0,-99.9,-100.00,North,7,15.0,22.0,-999,0.01,,,0.07,,2013-03-24 19:53:00,
2013-03-24 15:03:00,31.0,-99.9,-100.00,NNE,18,13.0,20.0,-999,0.00,,,0.07,,2013-03-24 20:03:00,
2013-03-24 15:13:00,31.0,-99.9,-100.00,NNE,18,13.0,20.0,-999,0.00,,,0.07,,2013-03-24 20:13:00,
2013-03-24 15:23:00,31.0,-99.9,-100.00,NNE,18,13.0,20.0,-999,0.00,,,0.07,,2013-03-24 20:23:00,
2013-03-24 15:33:00,31.0,-99.9,-100.00,NNE,13,12.0,18.0,-999,0.02,,,0.09,,2013-03-24 20:33:00,
2013-03-24 15:43:00,31.0,-99.9,-100.00,NNE,13,12.0,18.0,-999,0.02,,,0.09,,2013-03-24 20:43:00,
2013-03-24 15:53:00,31.0,-99.9,-100.00,NNE,13,12.0,18.0,-999,0.02,,,0.09,,2013-03-24 20:53:00,
2013-03-24 16:03:00,31.0,-99.9,-100.00,North,355,10.0,14.0,-999,0.03,,,0.10,,2013-03-24 21:03:00,
2013-03-24 16:12:00,31.0,-99.9,-100.00,North,355,10.0,14.0,-999,0.03,,,0.10,,2013-03-24 21:12:00,
2013-03-24 16:23:00,31.0,-99.9,-100.00,North,355,10.0,14.0,-999,0.03,,,0.10,,2013-03-24 21:23:00,
2013-03-24 16:33:00,31.0,-99.9,-100.00,NNW,345,14.0,19.0,-999,0.01,,,0.10,,2013-03-24 21:33:00,
2013-03-24 16:43:00,31.0,-99.9,-100.00,NNW,345,14.0,19.0,-999,0.01,,,0.10,,2013-03-24 21:43:00,
2013-03-24 16:53:00,31.0,-99.9,-100.00,NNW,345,14.0,19.0,-999,0.01,,,0.10,,2013-03-24 21:53:00,
2013-03-24 17:03:00,31.0,-99.9,-100.00,North,357,10.0,14.0,-999,0.00,,,0.10,,2013-03-24 22:03:00,
2013-03-24 17:13:00,31.0,-99.9,-100.00,North,357,10.0,14.0,-999,0.00,,,0.10,,2013-03-24 22:13:00,
2013-03-24 17:23:00,31.0,-99.9,-100.00,North,357,10.0,14.0,-999,0.00,,,0.10,,2013-03-24 22:23:00,
2013-03-24 17:33:00,30.0,-99.9,-100.00,NNW,343,12.0,16.0,-999,0.00,,,0.10,,2013-03-24 22:33:00,
2013-03-24 17:43:00,30.0,-99.9,-100.00,NNW,343,12.0,16.0,-999,0.00,,,0.10,,2013-03-24 22:43:00,
2013-03-24 17:53:00,30.0,-99.9,-100.00,NNW,343,12.0,16.0,-999,0.00,,,0.10,,2013-03-24 22:53:00,
2013-03-24 18:03:00,30.0,-99.9,-100.00,NNW,346,11.0,17.0,-999,0.00,,,0.10,,2013-03-24 23:03:00,
2013-03-24 18:12:00,30.0,-99.9,-100.00,NNW,346,11.0,17.0,-999,0.00,,,0.10,,2013-03-24 23:12:00,
2013-03-24 18:23:00,30.0,-99.9,-100.00,NNW,346,11.0,17.0,-999,0.00,,,0.10,,2013-03-24 23:23:00,
2013-03-24 18:30:00,29.0,-99.9,-100.00,North,349,12.0,22.0,-999,0.00,,,0.10,,2013-03-24 23:30:00,
2013-03-24 18:32:00,30.0,-99.9,-100.00,NNW,345,11.0,16.0,-999,0.00,,,0.10,,2013-03-24 23:32:00,
2013-03-24 18:43:00,30.0,-99.9,-100.00,NNW,345,11.0,16.0,-999,0.00,,,0.10,,2013-03-24 23:43:00,
2013-03-24 18:53:00,30.0,-99.9,-100.00,NNW,345,11.0,16.0,-999,0.00,,,0.10,,2013-03-24 23:53:00,
2013-03-24 19:02:00,29.0,-99.9,-100.00,North,349,12.0,22.0,-999,0.00,,,0.10,,2013-03-25 00:02:00,
2013-03-24 19:12:00,29.0,-99.9,-100.00,North,349,12.0,22.0,-999,0.00,,,0.10,,2013-03-25 00:12:00,
2013-03-24 19:23:00,29.0,-99.9,-100.00,North,349,12.0,22.0,-999,0.00,,,0.10,,2013-03-25 00:23:00,
2013-03-24 20:02:00,29.0,-99.9,-100.00,NNW,339,10.0,14.0,-999,0.00,,,0.10,,2013-03-25 01:02:00,
2013-03-24 20:12:00,29.0,-99.9,-100.00,NNW,339,10.0,14.0,-999,0.00,,,0.10,,2013-03-25 01:12:00,
2013-03-24 20:22:00,29.0,-99.9,-100.00,NNW,339,10.0,14.0,-999,0.00,,,0.10,,2013-03-25 01:22:00,
2013-03-24 20:30:00,29.0,-99.9,-100.00,NNW,337,11.0,19.0,-999,0.00,,,0.10,,2013-03-25 01:30:00,
2013-03-24 20:32:00,29.0,-99.9,-100.00,NNW,336,12.0,20.0,-999,0.00,,,0.10,,2013-03-25 01:32:00,
2013-03-24 20:42:00,29.0,-99.9,-100.00,NNW,336,12.0,20.0,-999,0.00,,,0.10,,2013-03-25 01:42:00,
2013-03-24 20:53:00,29.0,-99.9,-100.00,NNW,336,12.0,20.0,-999,0.00,,,0.10,,2013-03-25 01:53:00,
2013-03-24 21:00:00,29.0,-99.9,-100.00,NNW,330,11.0,15.0,-999,0.00,,,0.10,,2013-03-25 02:00:00,
2013-03-24 21:02:00,29.0,-99.9,-100.00,NNW,337,11.0,19.0,-999,0.00,,,0.10,,2013-03-25 02:02:00,
2013-03-24 21:12:00,29.0,-99.9,-100.00,NNW,337,11.0,19.0,-999,0.00,,,0.10,,2013-03-25 02:12:00,
2013-03-24 21:23:00,29.0,-99.9,-100.00,NNW,337,11.0,19.0,-999,0.00,,,0.10,,2013-03-25 02:23:00,
2013-03-24 21:43:00,29.0,-99.9,-100.00,NNW,330,11.0,15.0,-999,0.00,,,0.10,,2013-03-25 02:43:00,
2013-03-24 21:52:00,29.0,-99.9,-100.00,NNW,330,11.0,15.0,-999,0.00,,,0.10,,2013-03-25 02:52:00,
2013-03-24 22:30:00,29.0,-99.9,-100.00,NNW,334,9.0,15.0,-999,0.00,,,0.10,,2013-03-25 03:30:00,
2013-03-24 22:34:00,29.0,-99.9,-100.00,NNW,332,10.0,14.0,-999,0.00,,,0.10,,2013-03-25 03:34:00,
2013-03-24 22:43:00,29.0,-99.9,-100.00,NNW,332,10.0,14.0,-999,0.00,,,0.10,,2013-03-25 03:43:00,
2013-03-24 22:53:00,29.0,-99.9,-100.00,NNW,332,10.0,14.0,-999,0.00,,,0.10,,2013-03-25 03:53:00,
2013-03-24 23:03:00,29.0,-99.9,-100.00,NNW,334,9.0,15.0,-999,0.00,,,0.10,,2013-03-25 04:03:00,
2013-03-24 23:13:00,29.0,-99.9,-100.00,NNW,334,9.0,15.0,-999,0.00,,,0.10,,2013-03-25 04:13:00,
2013-03-24 23:23:00,29.0,-99.9,-100.00,NNW,334,9.0,15.0,-999,0.00,,,0.10,,2013-03-25 04:23:00,
2013-03-24 23:43:00,29.0,-99.9,-100.00,NNW,331,8.0,16.0,-999,0.00,,,0.10,,2013-03-25 04:43:00,
2013-03-24 23:53:00,29.0,-99.9,-100.00,NNW,331,8.0,16.0,-999,0.00,,,0.10,,2013-03-25 04:53:00,